Time;durP1;ratioP1;P1;durP2;ratioP2;P2;SDS_P1;SDS_P2;PMS_P1;PMS_P2;Temp;Humidity;BMP_temperature;BMP_pressure;BME280_temperature;BME280_humidity;BME280_pressure;Samples;Min_cycle;Max_cycle;Signal;HPM_P1;HPM_P2
2022/11/21 00:00:36;;;;;;;9.88;4.75;;;0.70;99.90;;;;;;6186999;23;20399;-88
2022/11/21 00:03:02;;;;;;;11.00;5.50;;;0.70;99.90;;;;;;6185316;23;20344;-87
2022/11/21 00:05:29;;;;;;;9.82;5.13;;;2.10;99.90;;;;;;6160288;23;20021;-89
2022/11/21 00:07:56;;;;;;;9.10;4.30;;;0.70;99.90;;;;;;6185353;23;20103;-87
2022/11/21 00:10:22;;;;;;;9.77;4.40;;;1.70;99.90;;;;;;6186956;23;20021;-88
2022/11/21 00:12:56;;;;;;;8.32;3.83;;;0.40;99.90;;;;;;6185338;23;20024;-90
2022/11/21 00:15:24;;;;;;;10.18;4.70;;;0.70;99.90;;;;;;6185268;23;20017;-87
2022/11/21 00:17:50;;;;;;;9.13;4.15;;;1.30;99.90;;;;;;6187061;23;20021;-86
2022/11/21 00:20:18;;;;;;;10.63;4.93;;;1.50;99.90;;;;;;6185158;23;20021;-86
2022/11/21 00:22:44;;;;;;;8.82;4.60;;;0.70;99.90;;;;;;6184796;23;20349;-88
2022/11/21 00:25:09;;;;;;;12.25;5.03;;;0.60;99.90;;;;;;6160299;23;20021;-88
2022/11/21 00:27:35;;;;;;;9.93;4.57;;;1.50;99.90;;;;;;6186919;23;20027;-89
2022/11/21 00:30:01;;;;;;;10.55;5.43;;;1.00;99.90;;;;;;6187022;23;20024;-89
2022/11/21 00:32:27;;;;;;;9.90;5.15;;;2.00;99.90;;;;;;6186718;23;20052;-86
2022/11/21 00:34:52;;;;;;;10.88;5.30;;;-0.10;99.90;;;;;;6186844;23;20013;-86
2022/11/21 00:37:18;;;;;;;11.68;5.68;;;0.40;99.90;;;;;;6186976;23;20013;-88
2022/11/21 00:39:43;;;;;;;10.43;5.32;;;0.40;99.90;;;;;;6186615;23;20021;-88
2022/11/21 00:42:09;;;;;;;11.43;5.78;;;1.10;99.90;;;;;;6186748;23;20093;-86
2022/11/21 00:44:35;;;;;;;12.52;6.18;;;1.50;99.90;;;;;;6186838;23;20336;-89
2022/11/21 00:47:00;;;;;;;10.32;5.43;;;0.30;99.90;;;;;;6184940;23;20398;-86
2022/11/21 00:49:26;;;;;;;11.38;5.05;;;0.10;99.90;;;;;;6186494;23;20020;-86
2022/11/21 00:51:52;;;;;;;9.52;5.45;;;0.20;99.90;;;;;;6160295;23;20375;-87
2022/11/21 00:54:17;;;;;;;12.93;6.30;;;0.40;99.90;;;;;;6192948;23;20023;-86
2022/11/21 00:56:43;;;;;;;12.02;4.95;;;1.80;99.90;;;;;;6216610;23;20071;-87
2022/11/21 00:59:09;;;;;;;11.00;5.28;;;0.20;99.90;;;;;;6189982;23;20459;-86
2022/11/21 01:01:34;;;;;;;12.55;5.85;;;1.30;99.90;;;;;;6216472;23;20074;-86
2022/11/21 01:04:00;;;;;;;10.07;6.15;;;0.10;99.90;;;;;;6189810;23;20021;-87
2022/11/21 01:06:26;;;;;;;11.70;5.03;;;0.80;99.90;;;;;;6216715;23;20021;-87
2022/11/21 01:08:51;;;;;;;11.95;5.60;;;0.60;99.90;;;;;;6216780;23;20317;-86
2022/11/21 01:11:19;;;;;;;10.00;5.00;;;-0.10;99.90;;;;;;6216521;23;20044;-87
2022/11/21 01:13:46;;;;;;;10.10;5.15;;;-0.10;99.90;;;;;;6216800;23;20012;-88
2022/11/21 01:16:14;;;;;;;10.32;5.75;;;1.10;99.90;;;;;;6216514;23;20035;-87
2022/11/21 01:18:40;;;;;;;11.02;5.28;;;0.30;99.90;;;;;;6216164;23;20088;-88
2022/11/21 01:21:12;;;;;;;10.95;5.97;;;1.20;99.90;;;;;;6216633;23;20040;-86
2022/11/21 01:23:38;;;;;;;11.55;5.88;;;-0.20;99.90;;;;;;6216220;23;20348;-89
2022/11/21 01:26:06;;;;;;;9.30;5.05;;;0.30;99.90;;;;;;6216466;23;20008;-86
2022/11/21 01:28:32;;;;;;;10.98;6.15;;;-1.10;99.90;;;;;;6190030;23;20095;-90
2022/11/21 01:31:04;;;;;;;9.02;5.40;;;1.30;99.90;;;;;;6189593;23;20114;-87
2022/11/21 01:33:30;;;;;;;11.40;5.75;;;-0.30;99.90;;;;;;6216039;23;20147;-87
2022/11/21 01:35:56;;;;;;;12.63;5.93;;;1.70;99.90;;;;;;6216519;23;20017;-89
2022/11/21 01:38:21;;;;;;;14.32;6.43;;;-0.40;99.90;;;;;;6189657;23;20009;-90
2022/11/21 01:40:47;;;;;;;12.52;5.95;;;0.60;99.90;;;;;;6216215;23;20016;-86
2022/11/21 01:43:14;;;;;;;12.55;5.80;;;0.70;99.90;;;;;;6216301;23;20407;-87
2022/11/21 01:45:56;;;;;;;10.23;5.35;;;0.90;99.90;;;;;;6216680;23;20058;-86
2022/11/21 01:48:36;;;;;;;12.20;6.32;;;-0.30;99.90;;;;;;6216204;23;20017;-86
2022/11/21 01:51:13;;;;;;;9.90;5.20;;;-0.50;99.90;;;;;;6216379;23;20052;-86
2022/11/21 01:53:44;;;;;;;10.50;5.63;;;-0.60;99.90;;;;;;6164425;23;20047;-86
2022/11/21 01:56:10;;;;;;;9.95;5.32;;;-0.70;99.90;;;;;;6188836;23;20017;-88
2022/11/21 01:58:38;;;;;;;10.73;5.80;;;-0.60;99.90;;;;;;6216216;23;20016;-86
2022/11/21 02:01:04;;;;;;;10.88;5.25;;;-0.80;99.90;;;;;;6216178;23;20009;-87
2022/11/21 02:03:34;;;;;;;10.50;5.30;;;-0.80;99.90;;;;;;6189312;23;20016;-88
2022/11/21 02:06:00;;;;;;;10.57;5.40;;;-0.80;99.90;;;;;;6215675;23;20012;-85
2022/11/21 02:08:27;;;;;;;9.32;5.18;;;0.50;99.90;;;;;;6215775;23;20040;-85
2022/11/21 02:11:13;;;;;;;10.27;4.95;;;1.20;99.90;;;;;;6215439;23;20016;-85
2022/11/21 02:13:38;;;;;;;10.93;4.33;;;-0.80;99.90;;;;;;6189582;23;20016;-87
2022/11/21 02:16:06;;;;;;;10.75;4.97;;;-0.80;99.90;;;;;;6188973;23;20247;-86
2022/11/21 02:18:31;;;;;;;9.75;4.35;;;-0.80;99.90;;;;;;6215951;23;20013;-87
2022/11/21 02:21:08;;;;;;;8.52;4.10;;;0.60;99.90;;;;;;6188798;23;20066;-85
2022/11/21 02:23:43;;;;;;;9.15;4.50;;;-0.40;99.90;;;;;;6215304;23;20017;-86
2022/11/21 02:26:09;;;;;;;7.47;3.50;;;-0.90;99.90;;;;;;6188757;23;20063;-86
2022/11/21 02:28:35;;;;;;;11.18;4.13;;;-0.90;99.90;;;;;;6216000;23;20023;-88
2022/11/21 02:31:01;;;;;;;8.80;3.95;;;-0.90;99.90;;;;;;6188797;23;20096;-88
2022/11/21 02:33:27;;;;;;;8.07;4.13;;;-0.90;99.90;;;;;;6215263;23;20451;-86
2022/11/21 02:36:00;;;;;;;10.07;4.82;;;0.20;99.90;;;;;;6215885;23;20024;-86
2022/11/21 02:38:31;;;;;;;12.68;5.82;;;0.60;99.90;;;;;;6215863;23;20383;-87
2022/11/21 02:41:11;;;;;;;87.47;81.45;;;-1.00;99.90;;;;;;6215848;23;20012;-85
2022/11/21 02:43:43;;;;;;;71.03;66.90;;;-0.90;99.90;;;;;;6188778;23;20012;-86
2022/11/21 02:46:09;;;;;;;134.95;126.50;;;-0.90;99.90;;;;;;6188912;23;20027;-86
2022/11/21 02:48:37;;;;;;;9.95;4.05;;;1.60;99.90;;;;;;6188813;23;20016;-87
2022/11/21 02:51:02;;;;;;;8.82;3.90;;;0.20;99.90;;;;;;6216169;23;20028;-85
2022/11/21 02:53:28;;;;;;;10.38;5.43;;;0.20;99.90;;;;;;6215113;23;20087;-86
2022/11/21 02:55:54;;;;;;;11.50;4.95;;;-0.20;99.90;;;;;;6183478;23;20435;-85
2022/11/21 02:58:19;;;;;;;8.45;3.53;;;-0.60;99.90;;;;;;6183919;23;20398;-87
2022/11/21 03:00:45;;;;;;;11.57;4.72;;;0.50;99.90;;;;;;6185207;23;20013;-86
2022/11/21 03:03:11;;;;;;;9.40;4.80;;;-0.90;99.90;;;;;;6185043;23;20091;-86
2022/11/21 03:05:38;;;;;;;9.10;4.72;;;-0.40;99.90;;;;;;6185606;23;20028;-87
2022/11/21 03:08:04;;;;;;;11.05;5.45;;;0.00;99.90;;;;;;6185809;23;20055;-86
2022/11/21 03:10:31;;;;;;;9.32;5.03;;;-0.20;99.90;;;;;;6185529;23;20013;-86
2022/11/21 03:13:00;;;;;;;11.77;5.20;;;0.10;99.90;;;;;;6185913;23;20013;-89
2022/11/21 03:15:27;;;;;;;11.63;4.53;;;-0.30;99.90;;;;;;6183468;23;20017;-86
2022/11/21 03:17:53;;;;;;;10.90;5.72;;;-1.10;99.90;;;;;;6185618;23;20013;-86
2022/11/21 03:20:19;;;;;;;30.08;27.83;;;-1.00;99.90;;;;;;6186578;23;20028;-86
2022/11/21 03:22:44;;;;;;;19.08;17.33;;;-0.10;99.90;;;;;;6185783;23;20017;-89
2022/11/21 03:25:10;;;;;;;39.42;36.58;;;0.40;99.90;;;;;;6187695;23;20032;-85
2022/11/21 03:27:35;;;;;;;41.42;38.75;;;-0.60;99.90;;;;;;6185536;23;20021;-87
2022/11/21 03:30:01;;;;;;;58.35;55.17;;;-0.50;99.90;;;;;;6187289;23;20528;-85
2022/11/21 03:32:27;;;;;;;139.55;130.80;;;-1.00;99.90;;;;;;6187293;23;20020;-88
2022/11/21 03:34:52;;;;;;;133.82;125.85;;;0.10;99.90;;;;;;6187331;23;20020;-87
2022/11/21 03:37:18;;;;;;;51.33;48.13;;;0.40;99.90;;;;;;6187695;23;20128;-88
2022/11/21 03:39:44;;;;;;;18.95;17.40;;;-1.10;99.90;;;;;;6185701;23;20448;-88
2022/11/21 03:42:10;;;;;;;8.60;5.03;;;-1.10;99.90;;;;;;6187080;23;20047;-86
2022/11/21 03:44:35;;;;;;;8.50;4.60;;;-1.10;99.90;;;;;;6187377;23;20053;-85
2022/11/21 03:47:01;;;;;;;14.02;4.20;;;0.40;99.90;;;;;;6186905;23;20448;-85
2022/11/21 03:49:27;;;;;;;8.88;5.05;;;-0.70;99.90;;;;;;6186980;23;20052;-89
2022/11/21 03:51:52;;;;;;;55.50;52.08;;;-0.60;99.90;;;;;;6187217;23;20032;-85
2022/11/21 03:54:18;;;;;;;10.85;4.70;;;0.60;99.90;;;;;;6187319;23;20436;-85
2022/11/21 03:56:43;;;;;;;31.75;29.38;;;-1.00;99.90;;;;;;6217245;23;20032;-86
2022/11/21 03:59:09;;;;;;;33.53;31.33;;;-0.80;99.90;;;;;;6165699;23;20017;-85
2022/11/21 04:01:35;;;;;;;9.90;4.97;;;-1.00;99.90;;;;;;6217352;23;20017;-87
2022/11/21 04:04:00;;;;;;;17.52;15.23;;;-0.80;99.90;;;;;;6217342;23;20466;-85
2022/11/21 04:06:30;;;;;;;112.22;105.30;;;-0.80;99.90;;;;;;6216570;23;20533;-87
2022/11/21 04:08:55;;;;;;;15.93;9.50;;;1.10;99.90;;;;;;6217220;23;20095;-86
2022/11/21 04:11:23;;;;;;;40.42;37.67;;;-0.80;99.90;;;;;;6217348;23;20059;-86
2022/11/21 04:13:52;;;;;;;9.70;6.55;;;0.20;99.90;;;;;;6216827;23;20096;-85
2022/11/21 04:16:17;;;;;;;42.95;40.15;;;-0.60;99.90;;;;;;6216749;23;20055;-88
2022/11/21 04:18:43;;;;;;;12.45;5.25;;;-0.60;99.90;;;;;;6216811;23;20016;-87
2022/11/21 04:21:09;;;;;;;46.85;43.88;;;-0.80;99.90;;;;;;6217038;23;20024;-87
2022/11/21 04:23:34;;;;;;;28.10;25.98;;;1.20;99.90;;;;;;6216956;23;20048;-87
2022/11/21 04:26:00;;;;;;;24.55;22.42;;;-0.60;99.90;;;;;;6216761;23;20399;-86
2022/11/21 04:28:26;;;;;;;49.25;46.20;;;-0.40;99.90;;;;;;6217047;23;20044;-88
2022/11/21 04:30:52;;;;;;;9.55;4.65;;;0.80;99.90;;;;;;6216477;23;20387;-87
2022/11/21 04:33:18;;;;;;;16.33;8.35;;;-0.50;99.90;;;;;;6216835;23;20013;-87
2022/11/21 04:35:45;;;;;;;65.38;61.08;;;-0.60;99.90;;;;;;6216574;23;20016;-86
2022/11/21 04:38:12;;;;;;;12.10;5.45;;;-0.60;99.90;;;;;;6190041;23;20072;-86
2022/11/21 04:40:38;;;;;;;52.97;49.78;;;-0.50;99.90;;;;;;6190001;23;20020;-89
2022/11/21 04:43:04;;;;;;;80.13;75.50;;;-0.50;99.90;;;;;;6216834;23;20135;-88
2022/11/21 04:45:30;;;;;;;132.90;125.25;;;0.10;99.90;;;;;;6216796;23;20012;-86
2022/11/21 04:47:56;;;;;;;116.40;110.20;;;0.10;99.90;;;;;;6216447;23;20530;-89
2022/11/21 04:50:22;;;;;;;127.18;120.10;;;-0.30;99.90;;;;;;6216515;23;20021;-87
2022/11/21 04:52:50;;;;;;;13.10;5.72;;;-0.40;99.90;;;;;;6164580;23;20012;-86
2022/11/21 04:55:15;;;;;;;14.43;6.05;;;0.70;99.90;;;;;;6216537;23;20031;-86
2022/11/21 04:57:41;;;;;;;12.43;6.60;;;-0.50;99.90;;;;;;6216799;23;20400;-86
2022/11/21 05:00:08;;;;;;;130.98;122.05;;;-0.60;99.90;;;;;;6189727;23;20016;-86
2022/11/21 05:02:33;;;;;;;155.95;142.15;;;-0.50;99.90;;;;;;6216374;23;20339;-86
2022/11/21 05:04:59;;;;;;;154.02;140.45;;;0.00;99.90;;;;;;6190007;23;20021;-86
2022/11/21 05:07:25;;;;;;;125.93;116.18;;;-0.30;99.90;;;;;;6189494;23;20343;-86
2022/11/21 05:09:50;;;;;;;164.57;149.65;;;-0.10;99.90;;;;;;6216659;23;20008;-85
2022/11/21 05:15:00;;;;;;;237.48;212.57;;;-0.70;99.90;;;;;;6189722;23;20024;-88
2022/11/21 05:17:29;;;;;;;214.35;182.30;;;0.20;99.90;;;;;;6216410;23;20343;-89
2022/11/21 05:19:54;;;;;;;215.23;177.82;;;0.00;99.90;;;;;;6216494;23;20055;-86
2022/11/21 05:22:20;;;;;;;218.40;181.25;;;-0.30;99.90;;;;;;6216234;23;20008;-89
2022/11/21 05:24:46;;;;;;;224.20;182.15;;;2.10;99.90;;;;;;6215977;23;20020;-88
2022/11/21 05:27:12;;;;;;;221.52;182.15;;;-1.00;99.90;;;;;;6189305;23;20071;-88
2022/11/21 05:29:37;;;;;;;243.25;213.43;;;-1.00;99.90;;;;;;6216287;23;20047;-86
2022/11/21 05:32:03;;;;;;;232.70;207.32;;;-1.10;99.90;;;;;;6216142;23;20470;-87
2022/11/21 05:34:29;;;;;;;234.70;209.70;;;-1.00;99.90;;;;;;6189312;23;20463;-86
2022/11/21 05:36:57;;;;;;;183.45;163.15;;;-1.80;99.90;;;;;;6216261;23;20447;-86
2022/11/21 05:39:24;;;;;;;220.13;198.35;;;-0.70;99.90;;;;;;6216274;23;20004;-89
2022/11/21 05:41:50;;;;;;;170.02;153.48;;;-0.30;99.90;;;;;;6215350;23;20025;-86
2022/11/21 05:44:16;;;;;;;174.68;156.65;;;-0.60;99.90;;;;;;6189262;23;20071;-87
2022/11/21 05:46:41;;;;;;;213.95;193.35;;;-1.30;99.90;;;;;;6215978;23;20052;-86
2022/11/21 05:49:07;;;;;;;162.05;147.50;;;-1.30;99.90;;;;;;6216287;23;20087;-87
2022/11/21 05:51:33;;;;;;;206.43;187.48;;;1.00;99.90;;;;;;6189188;23;20028;-86
2022/11/21 05:53:59;;;;;;;159.65;145.30;;;-1.30;99.90;;;;;;6215866;23;20159;-88
2022/11/21 05:56:25;;;;;;;210.30;191.20;;;-1.20;99.90;;;;;;6215350;23;20426;-87
2022/11/21 05:58:53;;;;;;;177.50;159.43;;;0.30;99.90;;;;;;6189088;23;20371;-88
2022/11/21 06:03:25;;;;;;;147.95;136.07;;;-0.10;99.90;;;;;;6215935;23;20009;-85
2022/11/21 06:04:04;;;;;;;138.80;130.43;;;-1.50;99.90;;;;;;6216173;23;20017;-86
2022/11/21 06:06:30;;;;;;;129.18;121.60;;;-0.40;99.90;;;;;;6215932;23;20062;-88
2022/11/21 06:08:55;;;;;;;140.73;132.32;;;-1.10;99.90;;;;;;6189091;23;20024;-87
2022/11/21 06:11:21;;;;;;;114.43;108.18;;;-1.50;99.90;;;;;;6189215;23;20017;-86
2022/11/21 06:13:47;;;;;;;105.18;99.20;;;-0.90;99.90;;;;;;6188960;23;20016;-86
2022/11/21 06:16:15;;;;;;;105.30;99.45;;;-1.70;99.90;;;;;;6189012;23;20075;-86
2022/11/21 06:18:43;;;;;;;10.52;4.88;;;-1.30;99.90;;;;;;6216025;23;20079;-87
2022/11/21 06:21:13;;;;;;;11.43;5.10;;;-1.70;99.90;;;;;;6216009;23;20095;-88
2022/11/21 06:23:41;;;;;;;17.48;6.68;;;-1.40;99.90;;;;;;6215782;23;20020;-86
2022/11/21 06:26:11;;;;;;;13.95;7.63;;;-1.70;99.90;;;;;;6188985;23;20325;-86
2022/11/21 06:28:38;;;;;;;31.58;29.33;;;-0.10;99.90;;;;;;6215637;23;20368;-85
2022/11/21 06:31:10;;;;;;;15.23;13.65;;;-1.70;99.90;;;;;;6215930;23;20012;-86
2022/11/21 06:33:36;;;;;;;48.05;45.17;;;-1.60;99.90;;;;;;6189319;23;20055;-86
2022/11/21 06:36:20;;;;;;;45.45;42.67;;;-1.90;99.90;;;;;;6189414;23;20468;-85
2022/11/21 06:38:46;;;;;;;15.18;13.80;;;-2.10;99.90;;;;;;6188950;23;20021;-87
2022/11/21 06:41:14;;;;;;;10.52;5.05;;;-1.90;99.90;;;;;;6188988;23;20028;-86
2022/11/21 06:43:40;;;;;;;13.23;5.60;;;-0.50;99.90;;;;;;6188798;23;20013;-88
2022/11/21 06:46:07;;;;;;;9.02;5.53;;;-1.50;99.90;;;;;;6188797;23;20052;-86
2022/11/21 06:48:34;;;;;;;11.85;6.28;;;-2.00;99.90;;;;;;6189126;23;20351;-86
2022/11/21 06:51:23;;;;;;;9.75;4.65;;;-2.00;99.90;;;;;;6215796;23;20016;-85
2022/11/21 06:53:57;;;;;;;10.55;4.20;;;-1.90;99.90;;;;;;6188726;23;20024;-85
2022/11/21 06:56:24;;;;;;;10.68;5.10;;;-2.00;99.90;;;;;;6183774;23;20032;-85
2022/11/21 06:58:51;;;;;;;9.23;4.85;;;-1.70;99.90;;;;;;6185490;23;20100;-85
2022/11/21 07:01:17;;;;;;;13.20;5.38;;;-1.50;99.90;;;;;;6183815;23;20021;-85
2022/11/21 07:03:43;;;;;;;13.80;5.85;;;-2.10;99.90;;;;;;6185577;23;20017;-86
2022/11/21 07:06:09;;;;;;;13.60;5.60;;;-1.10;99.90;;;;;;6183518;23;20091;-85
2022/11/21 07:08:35;;;;;;;13.32;5.82;;;-1.80;99.90;;;;;;6185567;23;20019;-85
2022/11/21 07:11:08;;;;;;;9.80;4.45;;;-2.20;99.90;;;;;;6185341;23;20467;-84
2022/11/21 07:13:34;;;;;;;11.38;4.88;;;-2.20;99.90;;;;;;6184000;23;20096;-86
2022/11/21 07:16:24;;;;;;;12.20;5.60;;;-1.60;99.90;;;;;;6183937;23;20045;-85
2022/11/21 07:18:50;;;;;;;12.00;4.65;;;-2.00;99.90;;;;;;6180867;23;20021;-85
2022/11/21 07:21:16;;;;;;;14.30;4.90;;;-2.00;99.90;;;;;;6185391;23;20065;-86
2022/11/21 07:23:41;;;;;;;8.80;3.95;;;0.30;99.90;;;;;;6183840;23;20017;-87
2022/11/21 07:26:09;;;;;;;9.60;3.92;;;-2.10;99.90;;;;;;6183729;23;20024;-85
2022/11/21 07:28:34;;;;;;;13.15;4.97;;;-1.20;99.90;;;;;;6185370;23;20024;-84
2022/11/21 07:31:02;;;;;;;7.43;3.67;;;-0.80;99.90;;;;;;6185540;23;20018;-86
2022/11/21 07:33:27;;;;;;;9.10;4.88;;;-1.20;99.90;;;;;;6185635;23;20013;-83
2022/11/21 07:35:57;;;;;;;12.38;5.22;;;-2.10;99.90;;;;;;6183536;23;20466;-85
2022/11/21 07:38:23;;;;;;;10.82;4.88;;;-2.10;99.90;;;;;;6185315;23;20024;-87
2022/11/21 07:40:49;;;;;;;8.55;4.30;;;-2.00;99.90;;;;;;6185751;23;20021;-88
2022/11/21 07:43:14;;;;;;;14.05;6.22;;;-2.00;99.90;;;;;;6185708;23;20024;-87
2022/11/21 07:45:40;;;;;;;9.43;4.82;;;-2.00;99.90;;;;;;6185338;23;20064;-87
2022/11/21 07:48:07;;;;;;;12.63;6.00;;;-2.00;99.90;;;;;;6185279;23;20422;-91
2022/11/21 07:50:33;;;;;;;10.73;5.07;;;-1.90;99.90;;;;;;6183070;23;20017;-85
2022/11/21 07:53:04;;;;;;;11.15;6.03;;;-1.90;99.90;;;;;;6184895;23;20393;-89
2022/11/21 07:55:30;;;;;;;12.48;4.82;;;-1.40;99.90;;;;;;6200757;23;20067;-86
2022/11/21 07:58:04;;;;;;;12.43;5.25;;;-1.90;99.90;;;;;;6215362;23;20031;-86
2022/11/21 08:00:31;;;;;;;9.43;4.95;;;-1.80;99.90;;;;;;6214931;23;20509;-86
2022/11/21 08:02:57;;;;;;;9.52;4.22;;;-1.90;99.90;;;;;;6215046;23;20070;-87
2022/11/21 08:05:23;;;;;;;9.90;4.78;;;-1.80;99.90;;;;;;6189267;23;20450;-85
2022/11/21 08:07:49;;;;;;;13.73;5.63;;;-1.80;99.90;;;;;;6216977;23;20031;-87
2022/11/21 08:10:15;;;;;;;10.48;4.85;;;-1.80;99.90;;;;;;6216983;23;20052;-85
2022/11/21 08:12:42;;;;;;;16.85;5.90;;;-1.70;99.90;;;;;;6190630;23;20379;-88
2022/11/21 08:15:07;;;;;;;14.63;5.40;;;-1.70;99.90;;;;;;6217270;23;20356;-89
2022/11/21 08:17:34;;;;;;;11.93;6.13;;;-1.70;99.90;;;;;;6217045;23;20023;-86
2022/11/21 08:19:59;;;;;;;13.77;5.93;;;-1.60;99.90;;;;;;6217132;23;20048;-87
2022/11/21 08:22:25;;;;;;;10.50;5.20;;;-1.50;99.90;;;;;;6216430;23;20028;-84
2022/11/21 08:24:53;;;;;;;12.05;5.03;;;-1.50;99.90;;;;;;6216639;23;20467;-84
2022/11/21 08:27:20;;;;;;;14.85;5.95;;;-1.50;99.90;;;;;;6216188;23;20027;-85
2022/11/21 08:29:46;;;;;;;12.70;5.60;;;-1.40;99.90;;;;;;6217084;23;20019;-83
2022/11/21 08:32:12;;;;;;;15.85;6.10;;;-1.30;99.90;;;;;;6216624;23;20466;-83
2022/11/21 08:34:38;;;;;;;15.05;5.45;;;-1.30;99.90;;;;;;6216954;23;20332;-84
2022/11/21 08:37:04;;;;;;;11.38;6.07;;;-1.20;99.90;;;;;;6217055;23;20082;-84
2022/11/21 08:39:32;;;;;;;12.48;6.82;;;-1.10;99.90;;;;;;6216871;23;20332;-84
2022/11/21 08:42:04;;;;;;;10.35;5.80;;;-1.00;99.90;;;;;;6216879;23;20012;-84
2022/11/21 08:44:32;;;;;;;12.70;5.93;;;-1.00;99.90;;;;;;6216806;23;20016;-84
2022/11/21 08:46:57;;;;;;;11.10;5.65;;;0.30;99.90;;;;;;6216756;23;20330;-83
2022/11/21 08:49:23;;;;;;;12.80;6.13;;;-0.90;99.90;;;;;;6190209;23;20052;-84
2022/11/21 08:51:49;;;;;;;13.23;4.70;;;-0.80;99.90;;;;;;6216642;23;20035;-84
2022/11/21 08:54:21;;;;;;;11.25;5.60;;;0.30;99.90;;;;;;6216397;23;20063;-85
2022/11/21 08:56:47;;;;;;;11.30;5.13;;;-0.60;99.90;;;;;;6189673;23;20448;-83
2022/11/21 08:59:13;;;;;;;14.52;6.93;;;-0.50;99.90;;;;;;6216258;23;20032;-85
2022/11/21 09:01:38;;;;;;;14.43;6.32;;;-0.40;99.90;;;;;;6216736;23;20017;-84
2022/11/21 09:04:05;;;;;;;16.77;7.68;;;-0.30;99.90;;;;;;6216729;23;20043;-83
2022/11/21 09:06:31;;;;;;;17.42;8.10;;;-0.20;99.90;;;;;;6216113;23;20056;-86
2022/11/21 09:08:56;;;;;;;21.33;9.10;;;-0.20;99.90;;;;;;6189996;23;20017;-84
2022/11/21 09:11:23;;;;;;;18.45;8.50;;;-0.10;99.90;;;;;;6216323;23;20411;-83
2022/11/21 09:19:19;;;;;;;18.98;9.50;;;0.10;99.90;;;;;;6189566;23;20024;-83
2022/11/21 09:21:47;;;;;;;19.55;8.68;;;0.10;99.90;;;;;;6216459;23;20020;-84
2022/11/21 09:24:13;;;;;;;19.45;7.95;;;0.20;99.90;;;;;;6215954;23;20016;-83
2022/11/21 09:26:38;;;;;;;15.98;7.75;;;0.20;99.90;;;;;;6216280;23;20116;-84
2022/11/21 09:29:04;;;;;;;16.35;7.70;;;0.30;99.90;;;;;;6216474;23;20372;-84
2022/11/21 09:31:30;;;;;;;13.63;7.78;;;0.60;99.90;;;;;;6216292;23;20032;-83
2022/11/21 09:33:55;;;;;;;18.10;8.65;;;0.40;99.90;;;;;;6189807;23;20017;-83
2022/11/21 09:36:21;;;;;;;15.45;7.13;;;0.50;99.90;;;;;;6216292;23;20012;-84
2022/11/21 09:38:46;;;;;;;16.35;7.30;;;1.20;99.90;;;;;;6216384;23;20023;-83
2022/11/21 09:44:37;;;;;;;14.48;7.22;;;0.70;99.90;;;;;;6216109;23;20021;-82
2022/11/21 09:47:29;;;;;;;15.57;7.55;;;0.70;99.90;;;;;;6164809;23;20024;-86
2022/11/21 09:50:05;;;;;;;13.82;6.57;;;0.80;99.90;;;;;;6216232;23;20023;-86
2022/11/21 09:52:56;;;;;;;11.70;5.82;;;0.80;99.90;;;;;;6215893;23;20017;-84
2022/11/21 09:55:34;;;;;;;11.68;5.50;;;0.90;99.90;;;;;;6216252;23;20021;-86
2022/11/21 09:58:02;;;;;;;10.43;5.13;;;1.20;99.90;;;;;;6215728;23;20539;-85
2022/11/21 10:00:29;;;;;;;10.52;5.57;;;1.00;99.90;;;;;;6189569;23;20373;-83
2022/11/21 10:02:55;;;;;;;11.07;5.45;;;1.10;99.90;;;;;;6216004;23;20019;-87
2022/11/21 10:05:38;;;;;;;16.38;7.97;;;1.10;99.90;;;;;;6216254;23;20012;-85
2022/11/21 10:08:29;;;;;;;12.32;6.70;;;0.90;99.90;;;;;;6216058;23;20095;-92
2022/11/21 10:11:05;;;;;;;13.75;6.35;;;1.30;99.90;;;;;;6215962;23;20024;-86
2022/11/21 10:13:53;;;;;;;14.82;7.65;;;2.10;99.90;;;;;;6216608;23;20339;-89
2022/11/21 10:16:33;;;;;;;14.73;7.32;;;1.40;99.90;;;;;;6189655;23;20016;-84
2022/11/21 10:19:20;;;;;;;13.65;7.20;;;1.40;99.90;;;;;;6216702;23;20340;-85
2022/11/21 10:22:02;;;;;;;14.77;7.70;;;1.90;99.90;;;;;;6216708;23;20493;-89
2022/11/21 10:24:41;;;;;;;13.93;7.72;;;1.40;99.90;;;;;;6189371;23;20025;-85
2022/11/21 10:27:33;;;;;;;15.40;8.15;;;1.50;99.90;;;;;;6215670;23;20017;-87
2022/11/21 10:30:05;;;;;;;12.60;6.95;;;1.50;99.90;;;;;;6191017;23;20474;-87
2022/11/21 10:32:40;;;;;;;13.68;6.28;;;1.60;99.90;;;;;;6214884;23;20016;-87
2022/11/21 10:35:23;;;;;;;13.30;7.00;;;1.60;99.90;;;;;;6216065;23;20036;-88
2022/11/21 10:37:54;;;;;;;12.02;6.53;;;1.70;99.90;;;;;;6215865;23;20047;-84
2022/11/21 10:40:40;;;;;;;11.15;5.55;;;1.70;99.90;;;;;;6217029;23;20009;-90
2022/11/21 10:45:59;;;;;;;13.70;6.75;;;1.90;99.90;;;;;;6216829;23;20032;-87
2022/11/21 10:48:25;;;;;;;15.18;7.20;;;2.00;99.90;;;;;;6218119;23;20012;-85
2022/11/21 10:50:53;;;;;;;15.77;7.57;;;2.20;99.90;;;;;;6190951;23;20360;-89
2022/11/21 10:56:19;;;;;;;16.08;8.48;;;2.40;99.90;;;;;;6216912;23;20023;-89
2022/11/21 10:58:47;;;;;;;16.23;7.80;;;2.50;99.90;;;;;;6216745;23;20027;-89
2022/11/21 11:01:27;;;;;;;16.60;8.55;;;2.50;99.90;;;;;;6216081;23;20016;-84
2022/11/21 11:04:29;;;;;;;15.35;7.63;;;2.50;99.90;;;;;;6188610;23;20133;-89
2022/11/21 11:06:56;;;;;;;12.05;5.82;;;2.60;99.90;;;;;;6065891;23;20094;-91
2022/11/21 11:09:22;;;;;;;13.82;6.43;;;2.50;99.90;;;;;;6066020;23;20539;-90
2022/11/21 11:11:48;;;;;;;11.82;5.75;;;2.60;99.90;;;;;;6066415;23;20019;-93
2022/11/21 11:14:15;;;;;;;13.13;7.38;;;2.60;99.90;;;;;;6066767;23;20474;-84
2022/11/21 11:16:48;;;;;;;12.57;6.70;;;3.20;99.90;;;;;;6049842;23;20023;-85
2022/11/21 11:22:55;;;;;;;10.63;5.40;;;2.70;99.90;;;;;;6065934;23;20030;-89
2022/11/21 11:25:22;;;;;;;11.68;6.57;;;3.30;99.90;;;;;;6042313;23;20022;-93
2022/11/21 11:27:48;;;;;;;13.18;6.90;;;2.80;99.90;;;;;;6065901;23;20019;-86
2022/11/21 11:30:18;;;;;;;12.52;6.53;;;2.90;99.90;;;;;;6066761;23;20015;-89
2022/11/21 11:32:44;;;;;;;11.75;6.78;;;3.00;99.90;;;;;;6066365;23;20104;-86
2022/11/21 11:35:12;;;;;;;11.30;6.30;;;3.10;99.90;;;;;;6065679;23;20018;-88
2022/11/21 11:37:42;;;;;;;10.52;6.40;;;3.90;99.90;;;;;;6065543;23;20030;-85
2022/11/21 11:40:27;;;;;;;13.02;6.90;;;3.40;99.90;;;;;;6066515;23;20019;-82
2022/11/21 11:49:00;;;;;;;11.00;6.15;;;3.60;99.90;;;;;;6219950;23;20023;-91
2022/11/21 11:51:47;;;;;;;9.95;5.30;;;3.70;99.90;;;;;;6220276;23;20016;-87
2022/11/21 11:54:22;;;;;;;10.48;5.55;;;4.10;99.90;;;;;;6192970;23;20027;-86
2022/11/21 11:56:48;;;;;;;7.97;4.90;;;3.80;99.90;;;;;;6220024;23;20017;-87
2022/11/21 11:59:56;;;;;;;10.73;6.03;;;3.80;99.90;;;;;;6194444;23;20236;-91
2022/11/21 12:02:34;;;;;;;12.95;6.78;;;4.10;99.90;;;;;;6069019;23;20034;-85
2022/11/21 12:05:12;;;;;;;11.00;6.18;;;3.90;99.90;;;;;;6045518;23;20022;-85
2022/11/21 12:07:42;;;;;;;11.18;5.78;;;4.60;99.90;;;;;;6067302;23;20549;-91
2022/11/21 12:10:17;;;;;;;10.10;5.85;;;4.30;99.90;;;;;;6069000;23;20467;-92
2022/11/21 12:12:53;;;;;;;11.55;6.20;;;4.00;99.90;;;;;;6044037;23;20070;-87
2022/11/21 12:15:48;;;;;;;9.32;4.70;;;4.10;99.90;;;;;;6070216;23;20019;-90
2022/11/21 12:18:14;;;;;;;12.25;5.18;;;4.20;99.90;;;;;;6020619;23;20154;-91
2022/11/21 12:21:03;;;;;;;11.18;4.85;;;4.10;99.90;;;;;;6066854;23;20075;-91
2022/11/21 12:23:38;;;;;;;10.27;4.93;;;4.20;99.90;;;;;;6067128;23;20023;-89
2022/11/21 12:26:48;;;;;;;8.45;4.63;;;4.20;99.90;;;;;;6019542;23;20053;-88
2022/11/21 12:29:17;;;;;;;8.25;4.43;;;4.30;99.90;;;;;;6038680;23;20023;-93
2022/11/21 12:31:54;;;;;;;8.25;4.65;;;4.30;99.90;;;;;;6067402;23;20331;-90
2022/11/21 12:34:25;;;;;;;7.80;4.05;;;4.30;99.90;;;;;;6067335;23;20030;-89
2022/11/21 12:37:12;;;;;;;7.88;4.30;;;4.40;99.90;;;;;;6080324;23;20038;-86
2022/11/21 12:39:47;;;;;;;8.68;4.10;;;4.40;99.90;;;;;;6217259;23;20047;-91
2022/11/21 12:45:37;;;;;;;9.48;5.60;;;4.50;99.90;;;;;;6125604;23;20352;-89
2022/11/21 12:54:30;;;;;;;11.02;4.97;;;4.30;99.90;;;;;;6125017;23;20101;-92
2022/11/21 12:57:17;;;;;;;11.75;5.72;;;4.20;99.90;;;;;;6126444;23;20026;-85
2022/11/21 13:00:04;;;;;;;8.00;4.53;;;4.90;99.90;;;;;;6125036;23;20025;-87
2022/11/21 13:03:03;;;;;;;10.95;5.35;;;4.20;99.90;;;;;;6100393;23;20041;-87
2022/11/21 13:05:34;;;;;;;10.75;6.00;;;4.20;99.90;;;;;;6125195;23;20040;-87
2022/11/21 13:08:13;;;;;;;7.47;3.92;;;4.20;99.90;;;;;;6102599;23;20026;-82
2022/11/21 13:11:57;;;;;;;7.95;4.28;;;4.20;99.90;;;;;;6124458;23;20014;-87
2022/11/21 13:13:46;;;;;;;9.90;5.07;;;4.10;99.90;;;;;;6124130;23;20366;-83
2022/11/21 13:16:35;;;;;;;8.77;4.88;;;4.10;99.90;;;;;;6124674;23;20017;-81
2022/11/21 13:19:17;;;;;;;9.07;4.53;;;4.20;99.90;;;;;;6124227;23;20097;-88
2022/11/21 13:21:49;;;;;;;9.18;4.65;;;4.00;99.90;;;;;;6126834;23;20016;-85
2022/11/21 13:24:50;;;;;;;9.70;5.28;;;4.10;99.90;;;;;;6215748;23;20017;-84
2022/11/21 13:27:24;;;;;;;10.20;5.50;;;4.00;99.90;;;;;;6065924;23;20371;-84
2022/11/21 13:30:09;;;;;;;12.55;5.88;;;4.00;99.90;;;;;;6066346;23;20015;-82